createdAt,value
2023-04-15T00:02:19.560Z,7.07
2023-04-15T00:04:47.871Z,7.75
2023-04-15T00:07:16.238Z,6.03
2023-04-15T00:09:44.676Z,5.70
2023-04-15T00:12:13.085Z,5.45
2023-04-15T00:14:40.905Z,5.53
2023-04-15T00:17:10.060Z,6.00
2023-04-15T00:19:38.294Z,7.10
2023-04-15T00:22:06.211Z,5.65
2023-04-15T00:24:33.971Z,7.30
2023-04-15T00:27:01.768Z,7.28
2023-04-15T00:29:29.699Z,5.53
2023-04-15T00:31:57.964Z,6.70
2023-04-15T00:34:27.929Z,5.78
2023-04-15T00:36:55.749Z,5.75
2023-04-15T00:39:23.690Z,6.32
2023-04-15T00:41:51.461Z,7.40
2023-04-15T00:44:20.019Z,6.70
2023-04-15T00:46:50.335Z,7.07
2023-04-15T00:49:19.289Z,5.88
2023-04-15T00:51:48.457Z,6.57
2023-04-15T00:54:16.368Z,5.70
2023-04-15T00:56:44.513Z,5.60
2023-04-15T00:59:12.506Z,5.78
2023-04-15T01:01:41.736Z,8.15
2023-04-15T01:04:11.054Z,7.75
2023-04-15T01:06:39.125Z,7.07
2023-04-15T01:09:08.212Z,6.60
2023-04-15T01:11:36.515Z,6.25
2023-04-15T01:14:04.772Z,6.95
2023-04-15T01:16:32.834Z,7.18
2023-04-15T01:19:01.267Z,6.93
2023-04-15T01:21:29.901Z,8.27
2023-04-15T01:23:58.491Z,7.80
2023-04-15T01:26:28.187Z,8.20
2023-04-15T01:28:56.401Z,7.70
2023-04-15T01:31:25.138Z,7.68
2023-04-15T01:33:53.000Z,8.32
2023-04-15T01:36:20.993Z,7.55
2023-04-15T01:38:49.122Z,8.18
2023-04-15T01:41:17.191Z,9.18
2023-04-15T01:43:46.986Z,9.18
2023-04-15T01:46:14.797Z,9.75
2023-04-15T01:48:42.632Z,8.13
2023-04-15T01:51:10.407Z,9.30
2023-04-15T01:53:38.315Z,9.27
2023-04-15T01:56:07.254Z,8.38
2023-04-15T01:58:35.037Z,7.38
2023-04-15T02:01:04.637Z,8.60
2023-04-15T02:03:33.608Z,8.10
2023-04-15T02:06:01.346Z,8.52
2023-04-15T02:08:29.799Z,7.93
2023-04-15T02:10:58.064Z,7.55
2023-04-15T02:13:26.387Z,9.63
2023-04-15T02:15:56.365Z,8.68
2023-04-15T02:18:25.574Z,7.88
2023-04-15T02:20:53.613Z,8.30
2023-04-15T02:23:21.321Z,8.30
2023-04-15T02:25:53.822Z,9.00
2023-04-15T02:28:22.604Z,7.57
2023-04-15T02:30:52.752Z,7.57
2023-04-15T02:33:21.032Z,5.80
2023-04-15T02:35:50.187Z,6.78
2023-04-15T02:38:18.011Z,9.20
2023-04-15T02:40:46.172Z,7.32
2023-04-15T02:43:13.967Z,7.20
2023-04-15T02:45:43.472Z,9.05
2023-04-15T02:48:11.514Z,9.15
2023-04-15T02:50:40.716Z,9.23
2023-04-15T02:53:13.408Z,7.55
2023-04-15T02:55:41.214Z,7.88
2023-04-15T02:58:08.918Z,7.90
2023-04-15T03:00:36.707Z,8.30
2023-04-15T03:03:06.142Z,7.88
2023-04-15T03:05:34.320Z,7.93
2023-04-15T03:08:04.772Z,8.77
2023-04-15T03:10:33.922Z,10.40
2023-04-15T03:13:02.865Z,7.72
2023-04-15T03:15:30.749Z,8.48
2023-04-15T03:17:58.586Z,10.32
2023-04-15T03:20:26.472Z,11.23
2023-04-15T03:22:54.399Z,9.30
2023-04-15T03:25:24.269Z,8.90
2023-04-15T03:27:53.597Z,8.85
2023-04-15T03:30:21.473Z,9.25
2023-04-15T03:32:49.313Z,9.57
2023-04-15T03:35:17.335Z,9.75
2023-04-15T03:37:45.144Z,8.95
2023-04-15T03:40:13.799Z,10.05
2023-04-15T03:42:41.631Z,10.18
2023-04-15T03:45:11.906Z,8.38
2023-04-15T03:47:39.663Z,8.63
2023-04-15T03:50:08.541Z,9.52
2023-04-15T03:52:36.508Z,8.35
2023-04-15T03:55:04.356Z,8.68
2023-04-15T03:57:32.241Z,9.38
2023-04-15T03:59:59.949Z,9.68
2023-04-15T04:02:29.169Z,10.15
2023-04-15T04:04:57.037Z,10.00
2023-04-15T04:07:25.439Z,10.45
2023-04-15T04:09:53.323Z,9.73
2023-04-15T04:12:21.064Z,10.73
2023-04-15T04:14:48.757Z,10.38
2023-04-15T04:17:16.521Z,11.50
2023-04-15T04:19:45.817Z,9.75
2023-04-15T04:22:13.566Z,10.43
2023-04-15T04:24:41.364Z,10.30
2023-04-15T04:27:09.136Z,11.45
2023-04-15T04:29:36.884Z,10.20
2023-04-15T04:32:04.724Z,10.65
2023-04-15T04:34:32.512Z,10.50
2023-04-15T04:37:01.687Z,10.13
2023-04-15T04:39:29.409Z,9.48
2023-04-15T04:41:57.508Z,9.15
2023-04-15T04:44:25.371Z,11.15
2023-04-15T04:46:53.121Z,10.82
2023-04-15T04:49:20.944Z,10.70
2023-04-15T04:51:48.892Z,10.45
2023-04-15T04:54:18.102Z,10.43
2023-04-15T04:56:46.358Z,11.38
2023-04-15T04:59:14.116Z,10.32
2023-04-15T05:01:42.077Z,11.80
2023-04-15T05:04:10.024Z,10.57
2023-04-15T05:06:37.890Z,11.50
2023-04-15T05:09:05.635Z,12.02
2023-04-15T05:11:34.721Z,11.20
2023-04-15T05:14:02.558Z,10.68
2023-04-15T05:16:30.382Z,10.32
2023-04-15T05:18:58.118Z,11.93
2023-04-15T05:21:25.918Z,11.85
2023-04-15T05:23:53.702Z,11.30
2023-04-15T05:26:22.109Z,10.50
2023-04-15T05:28:51.215Z,12.63
2023-04-15T05:31:19.016Z,11.55
2023-04-15T05:33:46.763Z,12.57
2023-04-15T05:36:14.497Z,11.25
2023-04-15T05:38:42.435Z,12.40
2023-04-15T05:41:10.273Z,11.32
2023-04-15T05:43:38.033Z,11.95
2023-04-15T05:46:08.551Z,10.68
2023-04-15T05:48:36.568Z,10.43
2023-04-15T05:51:04.430Z,9.40
2023-04-15T05:53:32.119Z,10.65
2023-04-15T05:56:00.037Z,11.90
2023-04-15T05:58:27.937Z,12.20
2023-04-15T06:00:55.788Z,12.43
2023-04-15T06:03:25.524Z,12.43
2023-04-15T06:05:53.402Z,11.43
2023-04-15T06:08:21.503Z,11.63
2023-04-15T06:10:49.330Z,10.40
2023-04-15T06:13:17.207Z,11.68
2023-04-15T06:15:44.998Z,11.77
2023-04-15T06:18:13.020Z,12.02
2023-04-15T06:20:42.179Z,10.25
2023-04-15T06:23:09.913Z,11.85
2023-04-15T06:25:37.695Z,11.18
2023-04-15T06:28:05.988Z,11.32
2023-04-15T06:30:33.773Z,10.98
2023-04-15T06:33:03.341Z,12.30
2023-04-15T06:35:31.141Z,11.57
2023-04-15T06:38:00.264Z,11.30
2023-04-15T06:40:28.230Z,12.00
2023-04-15T06:42:56.454Z,11.18
2023-04-15T06:45:24.244Z,12.52
2023-04-15T06:47:52.034Z,11.70
2023-04-15T06:50:19.837Z,11.77
2023-04-15T06:52:47.643Z,12.55
2023-04-15T06:55:16.784Z,13.43
2023-04-15T06:57:44.482Z,13.48
2023-04-15T07:00:13.557Z,16.30
2023-04-15T07:02:41.562Z,19.48
2023-04-15T07:05:09.997Z,19.65
2023-04-15T07:07:38.512Z,20.50
2023-04-15T07:10:07.415Z,19.98
2023-04-15T07:12:36.849Z,20.83
2023-04-15T07:15:05.473Z,21.23
2023-04-15T07:17:33.252Z,19.58
2023-04-15T07:20:01.022Z,23.23
2023-04-15T07:22:28.734Z,22.75
2023-04-15T07:24:56.660Z,24.70
2023-04-15T07:27:24.368Z,23.95
2023-04-15T07:29:53.533Z,23.05
2023-04-15T07:32:21.346Z,20.85
2023-04-15T07:34:49.080Z,20.35
2023-04-15T07:37:17.494Z,19.05
2023-04-15T07:39:45.209Z,17.33
2023-04-15T07:42:13.068Z,15.48
2023-04-15T07:44:41.123Z,15.93
2023-04-15T07:47:10.698Z,14.75
2023-04-15T07:49:38.546Z,13.65
2023-04-15T07:52:06.634Z,13.63
2023-04-15T07:54:34.358Z,12.77
2023-04-15T07:57:03.098Z,11.57
2023-04-15T07:59:33.355Z,11.93
2023-04-15T08:02:01.324Z,11.52
2023-04-15T08:04:31.204Z,12.00
2023-04-15T08:06:59.106Z,11.98
2023-04-15T08:09:27.182Z,11.35
2023-04-15T08:11:55.140Z,10.98
2023-04-15T08:14:22.984Z,10.60
2023-04-15T08:16:50.818Z,10.82
2023-04-15T08:19:18.601Z,9.73
2023-04-15T08:21:47.878Z,9.95
2023-04-15T08:24:15.814Z,9.15
2023-04-15T08:26:43.583Z,9.68
2023-04-15T08:29:11.353Z,9.57
2023-04-15T08:31:39.111Z,10.90
2023-04-15T08:34:07.005Z,9.95
2023-04-15T08:36:34.769Z,9.45
2023-04-15T08:39:04.970Z,10.00
2023-04-15T08:41:40.841Z,10.50
2023-04-15T08:44:08.963Z,9.30
2023-04-15T08:46:36.984Z,10.00
2023-04-15T08:49:06.045Z,9.93
2023-04-15T08:51:34.066Z,9.73
2023-04-15T08:54:03.568Z,10.40
2023-04-15T08:56:33.636Z,8.80
2023-04-15T08:59:01.949Z,9.63
2023-04-15T09:01:30.075Z,8.65
2023-04-15T09:04:00.080Z,9.40
2023-04-15T09:06:28.118Z,7.72
2023-04-15T09:08:55.870Z,7.93
2023-04-15T09:11:25.012Z,7.70
2023-04-15T09:13:52.762Z,7.68
2023-04-15T09:16:20.720Z,7.85
2023-04-15T09:18:48.536Z,7.97
2023-04-15T09:21:18.098Z,7.93
2023-04-15T09:23:56.691Z,8.10
2023-04-15T09:26:34.608Z,8.30
2023-04-15T09:29:07.455Z,8.13
2023-04-15T09:31:35.520Z,7.32
2023-04-15T09:34:03.947Z,7.75
2023-04-15T09:36:42.608Z,7.18
2023-04-15T09:39:10.464Z,7.05
2023-04-15T09:41:40.338Z,7.22
2023-04-15T09:44:08.341Z,7.00
2023-04-15T09:46:43.321Z,6.80
2023-04-15T09:49:12.319Z,6.90
2023-04-15T09:51:40.175Z,5.75
2023-04-15T09:54:07.922Z,5.78
2023-04-15T09:56:37.837Z,6.22
2023-04-15T09:59:07.595Z,5.80
2023-04-15T10:01:36.143Z,5.90
2023-04-15T10:04:05.979Z,6.65
2023-04-15T10:06:35.513Z,7.13
2023-04-15T10:09:03.519Z,6.70
2023-04-15T10:11:32.823Z,5.30
2023-04-15T10:14:01.954Z,6.50
2023-04-15T10:16:33.895Z,5.63
2023-04-15T10:19:04.481Z,5.97
2023-04-15T10:21:32.308Z,5.63
2023-04-15T10:24:01.843Z,5.55
2023-04-15T10:26:29.969Z,6.18
2023-04-15T10:28:59.944Z,6.07
2023-04-15T10:31:28.093Z,6.00
2023-04-15T10:33:58.338Z,5.43
2023-04-15T10:36:26.678Z,5.13
2023-04-15T10:38:54.453Z,4.95
2023-04-15T10:41:24.488Z,5.43
2023-04-15T10:43:53.804Z,5.63
2023-04-15T10:46:26.807Z,5.20
2023-04-15T10:48:55.227Z,5.57
2023-04-15T10:51:32.090Z,5.10
2023-04-15T10:54:00.927Z,5.60
2023-04-15T10:56:30.212Z,5.53
2023-04-15T10:59:00.788Z,5.55
2023-04-15T11:01:53.600Z,5.55
2023-04-15T11:04:52.795Z,5.35
2023-04-15T11:07:39.379Z,5.18
2023-04-15T11:10:52.810Z,5.32
2023-04-15T11:13:28.238Z,5.45
2023-04-15T11:16:01.625Z,5.43
2023-04-15T11:18:33.951Z,4.75
2023-04-15T11:21:04.555Z,5.10
2023-04-15T11:23:35.782Z,5.82
2023-04-15T11:26:08.872Z,5.40
2023-04-15T11:28:38.776Z,5.53
2023-04-15T11:31:11.255Z,5.43
2023-04-15T11:33:40.473Z,5.40
2023-04-15T11:36:09.394Z,5.47
2023-04-15T11:38:38.903Z,5.88
2023-04-15T11:41:06.781Z,5.78
2023-04-15T11:43:35.529Z,5.28
2023-04-15T11:46:04.562Z,5.60
2023-04-15T11:48:34.542Z,5.90
2023-04-15T11:51:03.564Z,5.80
2023-04-15T11:53:43.537Z,5.25
2023-04-15T11:56:12.678Z,6.05
2023-04-15T11:58:40.609Z,5.55
2023-04-15T12:01:08.486Z,5.97
2023-04-15T12:03:41.021Z,5.80
2023-04-15T12:06:14.162Z,5.40
2023-04-15T12:09:00.756Z,5.05
2023-04-15T12:11:37.530Z,5.03
2023-04-15T12:14:09.424Z,5.75
2023-04-15T12:16:48.008Z,5.45
2023-04-15T12:19:19.160Z,5.40
2023-04-15T12:21:49.090Z,5.35
2023-04-15T12:24:22.171Z,5.32
2023-04-15T12:26:52.171Z,5.00
2023-04-15T12:29:21.090Z,5.45
2023-04-15T12:31:53.174Z,5.05
2023-04-15T12:34:29.402Z,5.13
2023-04-15T12:36:58.838Z,5.10
2023-04-15T12:39:30.613Z,5.03
2023-04-15T12:41:58.833Z,4.32
2023-04-15T12:44:27.890Z,4.57
2023-04-15T12:46:56.559Z,4.40
2023-04-15T12:49:25.453Z,4.43
2023-04-15T12:51:55.022Z,4.32
2023-04-15T12:54:22.805Z,3.78
2023-04-15T12:56:52.515Z,4.20
2023-04-15T12:59:20.389Z,3.97
2023-04-15T13:01:49.270Z,3.88
2023-04-15T13:04:17.902Z,3.58
2023-04-15T13:06:45.953Z,3.55
2023-04-15T13:09:13.884Z,4.13
2023-04-15T13:11:41.948Z,3.53
2023-04-15T13:14:13.045Z,4.07
2023-04-15T13:16:41.490Z,3.85
2023-04-15T13:19:09.410Z,3.70
2023-04-15T13:21:37.250Z,4.18
2023-04-15T13:24:07.209Z,4.30
2023-04-15T13:26:35.987Z,4.05
2023-04-15T13:29:04.977Z,4.32
2023-04-15T13:31:34.220Z,4.90
2023-04-15T13:34:02.002Z,4.90
2023-04-15T13:36:29.860Z,4.70
2023-04-15T13:38:58.416Z,5.30
2023-04-15T13:41:26.254Z,4.90
2023-04-15T13:43:53.993Z,6.10
2023-04-15T13:46:21.997Z,5.72
2023-04-15T13:48:51.464Z,6.20
2023-04-15T13:51:19.176Z,6.15
2023-04-15T13:53:46.940Z,5.75
2023-04-15T13:56:14.687Z,6.63
2023-04-15T13:58:42.522Z,6.53
2023-04-15T14:01:10.375Z,7.32
2023-04-15T14:03:38.441Z,7.35
2023-04-15T14:06:08.027Z,7.93
2023-04-15T14:08:35.985Z,7.00
2023-04-15T14:11:03.849Z,7.55
2023-04-15T14:13:31.876Z,8.30
2023-04-15T14:15:59.606Z,7.38
2023-04-15T14:18:27.500Z,8.55
2023-04-15T14:20:55.616Z,7.38
2023-04-15T14:23:24.893Z,8.82
2023-04-15T14:25:52.760Z,8.05
2023-04-15T14:28:20.590Z,8.18
2023-04-15T14:30:48.366Z,8.32
2023-04-15T14:33:16.306Z,9.50
2023-04-15T14:35:44.337Z,9.25
2023-04-15T14:38:12.258Z,9.18
2023-04-15T14:40:42.733Z,9.95
2023-04-15T14:43:10.676Z,9.57
2023-04-15T14:45:41.881Z,9.45
2023-04-15T14:48:12.818Z,9.55
2023-04-15T14:50:41.356Z,10.15
2023-04-15T14:53:09.213Z,9.27
2023-04-15T14:55:36.965Z,9.70
2023-04-15T14:58:08.098Z,9.52
2023-04-15T15:00:39.212Z,9.88
2023-04-15T15:03:12.490Z,9.88
2023-04-15T15:05:40.781Z,9.75
2023-04-15T15:08:09.115Z,9.77
2023-04-15T15:10:49.470Z,9.82
2023-04-15T15:13:19.982Z,10.20
2023-04-15T15:15:49.408Z,9.25
2023-04-15T15:18:19.319Z,9.60
2023-04-15T15:20:47.506Z,9.95
2023-04-15T15:23:15.352Z,10.48
2023-04-15T15:25:43.193Z,9.43
2023-04-15T15:28:11.341Z,9.55
2023-04-15T15:30:40.660Z,9.05
2023-04-15T15:33:09.397Z,8.73
2023-04-15T15:35:37.252Z,9.30
2023-04-15T15:38:05.433Z,9.00
2023-04-15T15:40:33.232Z,8.55
2023-04-15T15:43:01.041Z,8.80
2023-04-15T15:45:28.923Z,8.40
2023-04-15T15:47:58.774Z,8.95
2023-04-15T15:50:26.794Z,8.43
2023-04-15T15:52:55.151Z,7.80
2023-04-15T15:55:23.395Z,8.43
2023-04-15T15:57:51.803Z,7.88
2023-04-15T16:00:19.678Z,8.23
2023-04-15T16:05:19.854Z,8.55
2023-04-15T16:07:47.587Z,9.00
2023-04-15T16:10:16.068Z,8.50
2023-04-15T16:12:43.947Z,8.02
2023-04-15T16:15:13.359Z,9.63
2023-04-15T16:17:41.266Z,9.65
2023-04-15T16:20:09.969Z,9.57
2023-04-15T16:22:39.099Z,9.25
2023-04-15T16:25:07.721Z,9.40
2023-04-15T16:27:43.442Z,9.80
2023-04-15T16:30:18.483Z,8.95
2023-04-15T16:32:46.802Z,9.57
2023-04-15T16:35:16.241Z,9.75
2023-04-15T16:37:45.325Z,9.95
2023-04-15T16:40:13.622Z,14.30
2023-04-15T16:42:43.405Z,11.60
2023-04-15T16:45:12.205Z,11.10
2023-04-15T16:47:40.457Z,9.50
2023-04-15T16:50:09.129Z,10.23
2023-04-15T16:52:37.473Z,11.60
2023-04-15T16:55:07.394Z,12.10
2023-04-15T16:57:50.804Z,11.48
2023-04-15T17:00:23.071Z,13.20
2023-04-15T17:02:51.092Z,11.82
2023-04-15T17:05:19.208Z,12.07
2023-04-15T17:07:46.914Z,12.20
2023-04-15T17:10:17.348Z,14.00
2023-04-15T17:12:45.322Z,14.15
2023-04-15T17:15:13.142Z,13.55
2023-04-15T17:17:41.109Z,14.43
2023-04-15T17:20:09.378Z,11.88
2023-04-15T17:22:37.298Z,13.07
2023-04-15T17:25:05.883Z,13.38
2023-04-15T17:27:35.002Z,14.68
2023-04-15T17:30:02.956Z,14.75
2023-04-15T17:32:34.199Z,15.00
2023-04-15T17:35:02.786Z,14.15
2023-04-15T17:37:30.674Z,14.10
2023-04-15T17:39:58.436Z,14.45
2023-04-15T17:42:26.361Z,15.13
2023-04-15T17:44:55.451Z,14.60
2023-04-15T17:47:23.252Z,16.45
2023-04-15T17:49:51.147Z,14.20
2023-04-15T17:52:18.876Z,14.50
2023-04-15T17:54:46.891Z,16.95
2023-04-15T17:57:14.746Z,15.60
2023-04-15T17:59:44.090Z,16.42
2023-04-15T18:02:13.652Z,15.13
2023-04-15T18:04:41.804Z,17.00
2023-04-15T18:07:09.924Z,17.40
2023-04-15T18:09:37.688Z,16.42
2023-04-15T18:12:07.589Z,17.02
2023-04-15T18:14:35.535Z,16.35
2023-04-15T18:17:03.603Z,19.38
2023-04-15T18:19:32.970Z,18.58
2023-04-15T18:22:00.963Z,18.65
2023-04-15T18:24:28.809Z,18.83
2023-04-15T18:26:57.109Z,17.52
2023-04-15T18:29:25.258Z,20.13
2023-04-15T18:31:53.268Z,17.27
2023-04-15T18:34:21.177Z,19.17
2023-04-15T18:36:50.351Z,19.52
2023-04-15T18:39:18.141Z,21.02
2023-04-15T18:41:45.909Z,19.85
2023-04-15T18:44:13.626Z,19.42
2023-04-15T18:46:41.490Z,18.98
2023-04-15T18:49:09.210Z,19.02
2023-04-15T18:51:37.126Z,19.98
2023-04-15T18:54:06.506Z,21.55
2023-04-15T18:56:34.281Z,19.00
2023-04-15T18:59:09.388Z,21.77
2023-04-15T19:01:49.830Z,19.98
2023-04-15T19:04:17.650Z,18.33
2023-04-15T19:06:45.372Z,20.83
2023-04-15T19:09:15.080Z,19.00
2023-04-15T19:11:43.617Z,19.77
2023-04-15T19:14:12.006Z,20.02
2023-04-15T19:16:39.865Z,19.73
2023-04-15T19:19:07.800Z,19.08
2023-04-15T19:21:35.849Z,19.05
2023-04-15T19:24:03.675Z,19.55
2023-04-15T19:26:32.833Z,19.02
2023-04-15T19:29:00.766Z,21.52
2023-04-15T19:31:28.567Z,20.98
2023-04-15T19:33:56.778Z,20.50
2023-04-15T19:36:24.533Z,22.20
2023-04-15T19:38:52.335Z,22.55
2023-04-15T19:41:20.117Z,20.85
2023-04-15T19:43:49.196Z,20.98
2023-04-15T19:46:16.998Z,21.48
2023-04-15T19:48:45.006Z,22.52
2023-04-15T19:51:12.960Z,22.23
2023-04-15T19:53:41.317Z,22.80
2023-04-15T19:56:09.068Z,23.35
2023-04-15T19:58:37.378Z,21.13
2023-04-15T20:01:06.596Z,24.35
2023-04-15T20:03:34.526Z,24.20
2023-04-15T20:06:02.354Z,22.75
2023-04-15T20:08:30.068Z,23.50
2023-04-15T20:10:58.182Z,23.00
2023-04-15T20:13:25.989Z,23.63
2023-04-15T20:15:53.766Z,23.85
2023-04-15T20:18:22.906Z,24.55
2023-04-15T20:20:50.720Z,24.63
2023-04-15T20:23:18.626Z,25.65
2023-04-15T20:25:46.356Z,26.33
2023-04-15T20:28:14.130Z,24.63
2023-04-15T20:30:41.927Z,26.60
2023-04-15T20:33:09.664Z,25.08
2023-04-15T20:35:38.949Z,26.70
2023-04-15T20:38:06.687Z,26.75
2023-04-15T20:40:34.618Z,26.33
2023-04-15T20:43:02.392Z,27.23
2023-04-15T20:45:30.092Z,23.35
2023-04-15T20:47:58.019Z,26.80
2023-04-15T20:50:25.781Z,23.13
2023-04-15T20:52:54.877Z,26.52
2023-04-15T20:55:22.611Z,24.02
2023-04-15T20:57:50.427Z,24.77
2023-04-15T21:00:18.256Z,27.98
2023-04-15T21:02:46.157Z,28.92
2023-04-15T21:05:13.918Z,26.08
2023-04-15T21:07:42.068Z,27.02
2023-04-15T21:10:11.995Z,26.05
2023-04-15T21:12:41.032Z,24.67
2023-04-15T21:15:09.869Z,29.70
2023-04-15T21:17:37.748Z,29.80
2023-04-15T21:20:06.433Z,27.83
2023-04-15T21:22:34.264Z,26.55
2023-04-15T21:25:02.081Z,29.00
2023-04-15T21:27:31.175Z,27.15
2023-04-15T21:29:58.900Z,25.48
2023-04-15T21:32:26.669Z,27.98
2023-04-15T21:34:54.447Z,29.92
2023-04-15T21:37:22.188Z,29.08
2023-04-15T21:39:49.911Z,30.52
2023-04-15T21:42:17.787Z,27.23
2023-04-15T21:44:46.922Z,27.13
2023-04-15T21:47:14.757Z,27.40
2023-04-15T21:49:42.714Z,27.88
2023-04-15T21:52:10.974Z,28.92
2023-04-15T21:54:38.678Z,27.30
2023-04-15T21:57:06.399Z,28.65
2023-04-15T21:59:34.116Z,30.92
2023-04-15T22:02:03.340Z,29.73
2023-04-15T22:04:31.260Z,27.10
2023-04-15T22:07:01.622Z,28.85
2023-04-15T22:09:29.427Z,25.67
2023-04-15T22:11:57.589Z,28.48
2023-04-15T22:14:25.346Z,30.33
2023-04-15T22:16:53.056Z,28.33
2023-04-15T22:19:22.141Z,29.30
2023-04-15T22:21:50.838Z,29.58
2023-04-15T22:24:34.048Z,29.63
2023-04-15T22:27:06.285Z,28.77
2023-04-15T22:29:34.122Z,27.88
2023-04-15T22:32:01.952Z,31.45
2023-04-15T22:34:31.065Z,29.58
2023-04-15T22:36:58.798Z,29.13
2023-04-15T22:39:26.596Z,30.75
2023-04-15T22:41:54.336Z,27.70
2023-04-15T22:44:22.040Z,31.60
2023-04-15T22:46:51.606Z,29.90
2023-04-15T22:49:19.402Z,29.90
2023-04-15T22:51:48.562Z,31.83
2023-04-15T22:54:16.268Z,28.70
2023-04-15T22:56:44.005Z,29.23
2023-04-15T22:59:11.883Z,28.67
2023-04-15T23:01:39.722Z,29.95
2023-04-15T23:04:22.872Z,26.30
2023-04-15T23:06:52.965Z,28.23
2023-04-15T23:09:20.956Z,28.77
2023-04-15T23:11:48.852Z,28.15
2023-04-15T23:14:16.676Z,28.83
2023-04-15T23:16:45.490Z,29.63
2023-04-15T23:19:13.228Z,29.70
2023-04-15T23:21:40.926Z,31.02
2023-04-15T23:24:10.041Z,29.92
2023-04-15T23:26:37.893Z,30.05
2023-04-15T23:29:05.783Z,31.23
2023-04-15T23:31:33.555Z,30.80
2023-04-15T23:34:01.356Z,26.52
2023-04-15T23:36:29.152Z,30.48
2023-04-15T23:38:56.872Z,26.85
2023-04-15T23:41:26.057Z,27.20
2023-04-15T23:43:53.795Z,27.38
2023-04-15T23:46:21.527Z,27.73
2023-04-15T23:48:49.696Z,29.90
2023-04-15T23:51:17.940Z,29.15
2023-04-15T23:53:45.740Z,30.55
2023-04-15T23:56:13.460Z,30.05
2023-04-15T23:58:42.618Z,30.30
